Time;durP1;ratioP1;P1;durP2;ratioP2;P2;SDS_P1;SDS_P2;PMS_P1;PMS_P2;Temp;Humidity;BMP_temperature;BMP_pressure;BME280_temperature;BME280_humidity;BME280_pressure;Samples;Min_cycle;Max_cycle;Signal;HPM_P1;HPM_P2
2022/04/16 00:00:08;;;;;;;26.55;15.05;;;;;;;7.13;83.42;102863.00;5051453;28;20044;-77
2022/04/16 00:02:33;;;;;;;25.98;14.10;;;;;;;7.13;82.71;102852.31;5046735;28;20108;-77
2022/04/16 00:04:58;;;;;;;25.40;13.32;;;;;;;7.15;83.11;102854.94;5043242;28;20032;-77
2022/04/16 00:07:24;;;;;;;22.85;12.30;;;;;;;7.13;83.28;102854.97;5045305;28;20485;-77
2022/04/16 00:09:49;;;;;;;25.92;13.80;;;;;;;7.11;83.27;102854.13;5062231;28;20064;-77
2022/04/16 00:12:14;;;;;;;26.85;14.18;;;;;;;7.09;82.88;102850.63;5052721;28;20554;-77
2022/04/16 00:14:39;;;;;;;25.63;14.48;;;;;;;7.08;83.04;102854.22;5048217;28;20036;-77
2022/04/16 00:17:06;;;;;;;27.02;14.27;;;;;;;7.10;83.02;102856.84;5057055;28;20037;-77
2022/04/16 00:19:32;;;;;;;24.40;12.98;;;;;;;7.10;82.66;102860.41;5058602;28;20075;-77
2022/04/16 00:21:57;;;;;;;25.65;13.05;;;;;;;7.10;83.17;102857.75;5046505;28;20029;-77
2022/04/16 00:24:22;;;;;;;25.42;13.32;;;;;;;7.12;82.71;102861.25;5049043;28;20043;-77
2022/04/16 00:26:50;;;;;;;25.10;14.48;;;;;;;7.13;83.37;102856.75;5029793;28;20071;-77
2022/04/16 00:29:15;;;;;;;24.02;13.15;;;;;;;7.13;83.02;102859.44;5048523;28;20108;-77
2022/04/16 00:31:42;;;;;;;26.70;14.43;;;;;;;7.13;82.77;102851.41;5042633;28;20104;-77
2022/04/16 00:34:07;;;;;;;25.30;13.88;;;;;;;7.13;82.86;102854.09;5029653;28;20056;-77
2022/04/16 00:36:32;;;;;;;26.08;14.68;;;;;;;7.12;82.98;102869.25;5033329;28;20597;-77
2022/04/16 00:38:57;;;;;;;27.63;15.43;;;;;;;7.12;82.78;102855.88;5032974;28;20029;-77
2022/04/16 00:41:23;;;;;;;26.63;16.05;;;;;;;7.11;82.38;102855.94;5033446;28;20096;-77
2022/04/16 00:43:48;;;;;;;25.13;13.40;;;;;;;7.13;82.65;102863.00;5051016;28;20028;-77
2022/04/16 00:46:14;;;;;;;26.00;14.98;;;;;;;7.11;82.99;102859.47;5055323;28;20025;-77
2022/04/16 00:48:39;;;;;;;25.20;15.18;;;;;;;7.10;82.64;102862.19;5056444;28;20044;-77
2022/04/16 00:51:04;;;;;;;26.77;14.10;;;;;;;7.06;82.90;102865.84;5034670;28;20021;-77
2022/04/16 00:53:30;;;;;;;24.15;13.93;;;;;;;7.03;83.46;102865.94;5051507;28;20021;-77
2022/04/16 00:55:57;;;;;;;25.35;14.40;;;;;;;7.02;83.46;102867.75;5052244;28;20504;-77
2022/04/16 00:58:22;;;;;;;29.50;14.52;;;;;;;7.00;83.34;102861.56;5053198;28;20032;-77
2022/04/16 01:00:48;;;;;;;24.23;13.85;;;;;;;7.00;83.35;102864.25;5052975;28;20028;-77
2022/04/16 01:03:14;;;;;;;25.27;13.80;;;;;;;6.99;84.04;102855.31;5041779;28;20051;-77
2022/04/16 01:05:39;;;;;;;26.77;15.13;;;;;;;6.98;83.74;102858.94;5048491;28;20024;-77
2022/04/16 01:08:05;;;;;;;28.13;15.38;;;;;;;6.99;83.58;102860.69;5034338;28;20025;-77
2022/04/16 01:10:33;;;;;;;26.60;15.55;;;;;;;6.94;84.03;102862.59;5034786;28;20025;-77
2022/04/16 01:13:02;;;;;;;29.70;14.82;;;;;;;6.94;84.22;102865.28;5053945;28;20107;-77
2022/04/16 01:15:29;;;;;;;28.02;15.85;;;;;;;6.94;83.78;102870.63;5051155;28;20028;-77
2022/04/16 01:17:56;;;;;;;28.95;14.93;;;;;;;6.93;83.74;102860.84;5069145;28;20029;-77
2022/04/16 01:20:22;;;;;;;32.35;15.50;;;;;;;6.92;83.83;102869.75;5072698;28;20020;-77
2022/04/16 01:22:48;;;;;;;29.08;17.10;;;;;;;6.91;84.27;102867.13;5049898;28;20029;-77
2022/04/16 01:25:14;;;;;;;30.63;17.20;;;;;;;6.89;83.94;102869.84;5036861;28;20439;-77
2022/04/16 01:27:43;;;;;;;25.60;14.90;;;;;;;6.89;84.43;102868.97;5054039;28;20052;-77
2022/04/16 01:30:09;;;;;;;27.52;15.68;;;;;;;6.85;84.10;102868.16;5053941;28;20509;-77
2022/04/16 01:32:36;;;;;;;28.25;16.95;;;;;;;6.84;84.43;102874.44;5052409;28;20033;-77
2022/04/16 01:35:03;;;;;;;29.25;16.13;;;;;;;6.83;84.40;102880.69;5050358;28;20067;-77
2022/04/16 01:37:33;;;;;;;26.08;15.20;;;;;;;6.84;84.57;102882.47;5053601;28;20112;-77
2022/04/16 01:40:02;;;;;;;27.75;16.23;;;;;;;6.78;84.56;102874.59;5042023;28;20025;-77
2022/04/16 01:42:29;;;;;;;31.77;17.80;;;;;;;6.77;84.58;102878.19;5032374;28;20025;-77
2022/04/16 01:44:56;;;;;;;27.10;15.57;;;;;;;6.76;84.91;102879.97;5033609;28;20396;-77
2022/04/16 01:47:21;;;;;;;27.77;16.73;;;;;;;6.76;84.79;102887.09;5062132;28;20422;-77
2022/04/16 01:49:46;;;;;;;27.02;17.08;;;;;;;6.73;84.95;102887.19;5072092;28;20032;-77
2022/04/16 01:52:13;;;;;;;28.40;16.00;;;;;;;6.72;85.55;102883.66;5063139;28;20021;-77
2022/04/16 01:54:39;;;;;;;26.02;16.27;;;;;;;6.71;85.28;102881.03;5053117;28;20032;-77
2022/04/16 01:57:05;;;;;;;28.27;18.13;;;;;;;6.71;85.27;102875.66;5046373;28;20477;-77
2022/04/16 01:59:30;;;;;;;26.88;15.10;;;;;;;6.68;85.07;102879.28;5053648;28;20025;-77
2022/04/16 02:01:56;;;;;;;28.92;17.30;;;;;;;6.67;85.33;102882.00;5053179;28;20025;-77
2022/04/16 02:04:22;;;;;;;27.50;16.80;;;;;;;6.63;85.25;102882.06;5042216;28;20025;-77
2022/04/16 02:06:50;;;;;;;30.00;16.05;;;;;;;6.58;85.52;102880.44;5049891;28;20033;-77
2022/04/16 02:09:15;;;;;;;28.45;15.48;;;;;;;6.57;85.54;102881.34;5051672;28;20095;-77
2022/04/16 02:11:40;;;;;;;28.80;16.55;;;;;;;6.57;85.66;102873.31;5050790;28;20029;-77
2022/04/16 02:14:06;;;;;;;29.05;16.80;;;;;;;6.55;85.60;102881.38;5040369;28;20413;-77
2022/04/16 02:16:31;;;;;;;28.30;16.77;;;;;;;6.55;85.86;102885.84;5039391;28;20102;-77
2022/04/16 02:18:56;;;;;;;28.95;16.77;;;;;;;6.52;85.74;102889.47;5069600;28;20028;-77
2022/04/16 02:21:22;;;;;;;29.75;16.95;;;;;;;6.51;86.26;102889.50;5052878;28;20024;-77
2022/04/16 02:23:48;;;;;;;28.98;17.73;;;;;;;6.50;86.05;102885.97;5053158;28;20512;-77
2022/04/16 02:26:14;;;;;;;29.92;17.48;;;;;;;6.47;86.37;102886.91;5051035;28;20040;-77
2022/04/16 02:28:39;;;;;;;27.92;17.67;;;;;;;6.45;86.02;102886.03;5051371;28;20037;-77
2022/04/16 02:31:04;;;;;;;32.08;18.48;;;;;;;6.43;86.17;102892.34;5040150;28;20501;-77
2022/04/16 02:33:30;;;;;;;29.98;16.45;;;;;;;6.40;86.44;102898.63;5032892;28;20068;-77
2022/04/16 02:35:57;;;;;;;29.05;16.83;;;;;;;6.37;86.35;102893.38;5042486;28;20060;-77
2022/04/16 02:38:23;;;;;;;29.13;16.02;;;;;;;6.37;86.47;102888.03;5051165;28;20033;-77
2022/04/16 02:40:48;;;;;;;30.90;16.90;;;;;;;6.33;86.56;102893.47;5052255;28;20027;-77
2022/04/16 02:43:13;;;;;;;32.70;18.70;;;;;;;6.32;86.93;102889.91;5051230;28;20036;-77
2022/04/16 02:48:22;;;;;;;31.02;17.42;;;;;;;6.27;87.04;102892.69;5040752;28;20052;-77
2022/04/16 02:50:50;;;;;;;29.88;17.95;;;;;;;6.28;87.14;102899.78;5032498;28;20037;-77
2022/04/16 02:53:15;;;;;;;30.55;16.35;;;;;;;6.23;87.10;102896.34;5032260;28;20299;-77
2022/04/16 02:55:46;;;;;;;31.90;16.85;;;;;;;6.21;87.11;102897.28;5038456;28;20040;-77
2022/04/16 02:58:12;;;;;;;26.75;16.65;;;;;;;6.19;87.39;102897.31;5050673;28;20477;-77
2022/04/16 03:00:37;;;;;;;29.23;16.77;;;;;;;6.17;87.26;102899.16;5052105;28;20473;-77
2022/04/16 03:03:03;;;;;;;29.88;18.23;;;;;;;6.18;87.40;102900.91;5051917;28;20028;-77
2022/04/16 03:05:28;;;;;;;27.65;17.15;;;;;;;6.15;87.35;102908.09;5050055;28;20396;-77
2022/04/16 03:07:54;;;;;;;29.85;16.38;;;;;;;6.11;87.39;102917.97;5050660;28;20391;-76
2022/04/16 03:10:19;;;;;;;29.95;17.90;;;;;;;6.06;87.63;102911.84;5050074;28;20016;-76
2022/04/16 03:12:46;;;;;;;30.45;17.15;;;;;;;6.02;87.52;102923.47;5051684;28;20057;-76
2022/04/16 03:17:57;;;;;;;29.83;17.52;;;;;;;5.86;88.20;102918.44;5064652;28;20048;-76
2022/04/16 03:20:23;;;;;;;33.67;19.42;;;;;;;5.81;88.15;102917.63;5070470;28;20028;-76
2022/04/16 03:22:48;;;;;;;29.33;17.35;;;;;;;5.81;88.66;102920.31;5033805;28;20033;-76
2022/04/16 03:25:14;;;;;;;29.17;17.05;;;;;;;5.77;88.95;102919.50;5035068;28;20031;-76
2022/04/16 03:27:39;;;;;;;28.55;16.92;;;;;;;5.74;88.66;102921.34;5051819;28;20020;-76
2022/04/16 03:30:06;;;;;;;29.90;17.15;;;;;;;5.71;89.08;102924.06;5051930;28;20020;-76
2022/04/16 03:32:31;;;;;;;31.30;17.35;;;;;;;5.70;89.13;102917.00;5033629;28;20049;-76
2022/04/16 03:34:59;;;;;;;29.05;16.88;;;;;;;5.68;88.84;102918.78;5049274;28;20567;-76
2022/04/16 03:37:24;;;;;;;31.02;18.52;;;;;;;5.67;89.40;102917.06;5051449;28;20021;-76
2022/04/16 03:39:51;;;;;;;29.38;17.30;;;;;;;5.66;89.36;102920.63;5030387;28;20116;-76
2022/04/16 03:42:18;;;;;;;30.88;17.20;;;;;;;5.65;89.19;102919.75;5029208;28;20061;-76
2022/04/16 03:44:43;;;;;;;32.08;18.35;;;;;;;5.64;89.37;102917.09;5032123;28;20401;-76
2022/04/16 03:47:10;;;;;;;37.72;17.90;;;;;;;5.58;89.36;102916.31;5059406;28;20054;-76
2022/04/16 03:49:35;;;;;;;30.92;18.85;;;;;;;5.55;89.51;102916.38;5070446;28;20039;-76
2022/04/16 03:52:00;;;;;;;30.17;18.40;;;;;;;5.53;89.61;102919.97;5062387;28;20021;-76
2022/04/16 03:59:59;;;;;;;32.10;17.80;;;;;;;5.48;89.83;102912.06;5041490;28;20514;-76
2022/04/16 04:02:26;;;;;;;29.20;18.48;;;;;;;5.49;89.91;102924.50;5049926;28;20052;-76
2022/04/16 04:04:51;;;;;;;37.63;19.20;;;;;;;5.45;89.76;102922.78;5050317;28;20488;-76
2022/04/16 04:07:17;;;;;;;30.92;17.58;;;;;;;5.42;89.62;102923.72;5049953;28;20023;-76
2022/04/16 04:09:43;;;;;;;32.08;19.20;;;;;;;5.40;89.89;102919.31;5050151;28;20120;-76
2022/04/16 04:12:13;;;;;;;32.42;17.77;;;;;;;5.39;90.21;102936.25;5034021;28;20481;-76
2022/04/16 04:14:39;;;;;;;29.95;18.25;;;;;;;5.35;90.06;102926.53;5047580;28;20459;-76
2022/04/16 04:17:08;;;;;;;30.05;18.13;;;;;;;5.33;90.36;102929.22;5048177;28;20056;-76
2022/04/16 04:19:36;;;;;;;30.02;18.02;;;;;;;5.34;90.42;102936.31;5070928;28;20056;-76
2022/04/16 04:22:06;;;;;;;31.90;19.20;;;;;;;5.34;90.32;102930.09;5055165;28;20124;-76
2022/04/16 04:24:31;;;;;;;31.77;18.52;;;;;;;5.37;90.50;102935.38;5031176;28;20065;-76
2022/04/16 04:27:00;;;;;;;32.22;18.92;;;;;;;5.34;90.49;102940.75;5045494;28;20052;-76
2022/04/16 04:29:26;;;;;;;30.50;18.63;;;;;;;5.31;90.43;102940.81;5043936;28;20104;-76
2022/04/16 04:31:52;;;;;;;32.88;20.23;;;;;;;5.25;90.00;102947.13;5046196;28;20069;-76
2022/04/16 04:34:17;;;;;;;33.65;20.67;;;;;;;5.24;90.81;102942.69;5049402;28;20041;-76
2022/04/16 04:36:42;;;;;;;33.55;20.23;;;;;;;5.22;91.04;102948.06;5050775;28;20024;-76
2022/04/16 04:39:08;;;;;;;33.13;19.88;;;;;;;5.29;91.44;102951.50;5049945;28;20024;-76
2022/04/16 04:41:33;;;;;;;34.60;21.00;;;;;;;5.33;91.37;102950.56;5045696;28;20033;-76
2022/04/16 04:43:59;;;;;;;34.45;20.58;;;;;;;5.36;91.00;102954.94;5029310;28;20021;-76
2022/04/16 04:46:24;;;;;;;36.15;20.45;;;;;;;5.38;91.26;102953.16;5039781;28;20029;-76
2022/04/16 04:48:49;;;;;;;34.83;20.73;;;;;;;5.40;90.85;102961.97;5066803;28;20020;-76
2022/04/16 04:51:14;;;;;;;32.05;19.50;;;;;;;5.42;90.81;102962.84;5036017;28;20029;-76
2022/04/16 04:53:40;;;;;;;32.72;19.63;;;;;;;5.43;90.97;102964.59;5031800;28;20088;-76
2022/04/16 04:56:05;;;;;;;32.53;19.83;;;;;;;5.46;91.10;102959.22;5042023;28;20082;-76
2022/04/16 04:58:30;;;;;;;36.47;21.77;;;;;;;5.46;90.89;102964.56;5044896;28;20056;-76
2022/04/16 05:00:56;;;;;;;34.25;19.60;;;;;;;5.46;90.79;102967.22;5039424;28;20112;-76
2022/04/16 05:03:21;;;;;;;33.22;20.25;;;;;;;5.46;91.23;102971.66;5033678;28;20064;-76
2022/04/16 05:05:47;;;;;;;36.92;22.02;;;;;;;5.48;90.93;102969.88;5036487;28;20030;-76
2022/04/16 05:08:12;;;;;;;32.38;20.05;;;;;;;5.50;91.16;102973.38;5038708;28;20022;-76
2022/04/16 05:10:37;;;;;;;31.35;20.50;;;;;;;5.54;91.12;102980.44;5035276;28;20294;-76
2022/04/16 05:13:02;;;;;;;36.67;20.58;;;;;;;5.54;90.95;102978.63;5049597;28;20044;-75
2022/04/16 05:15:29;;;;;;;34.08;20.67;;;;;;;5.55;91.24;102972.41;5032114;28;20400;-75
2022/04/16 05:17:54;;;;;;;36.25;22.33;;;;;;;5.56;90.90;102979.50;5027864;28;20027;-75
2022/04/16 05:20:20;;;;;;;35.05;21.15;;;;;;;5.60;91.15;102977.63;5036778;28;20033;-75
2022/04/16 05:22:46;;;;;;;34.17;21.63;;;;;;;5.63;90.92;102979.38;5039834;28;20366;-75
2022/04/16 05:25:11;;;;;;;34.33;20.98;;;;;;;5.67;91.00;102986.44;5033292;28;20540;-75
2022/04/16 05:27:36;;;;;;;33.58;21.60;;;;;;;5.69;90.92;102989.94;5046014;28;20020;-75
2022/04/16 05:30:29;;;;;;;35.38;21.45;;;;;;;5.70;91.20;102984.56;5049352;28;20029;-76
2022/04/16 05:32:50;;;;;;;34.58;21.63;;;;;;;5.71;90.83;102993.44;5049601;28;20045;-75
2022/04/16 05:35:16;;;;;;;32.75;22.13;;;;;;;5.75;91.14;102995.16;5049631;28;20079;-77
2022/04/16 05:37:42;;;;;;;41.47;24.00;;;;;;;5.77;91.19;102982.69;5035013;28;20509;-76
2022/04/16 05:40:09;;;;;;;34.33;21.17;;;;;;;5.80;90.95;102992.38;5048658;28;20021;-76
2022/04/16 05:42:40;;;;;;;36.30;22.65;;;;;;;5.82;91.26;102986.13;5043338;28;20064;-76
2022/04/16 05:45:06;;;;;;;32.65;22.00;;;;;;;5.84;91.16;102994.09;5036828;28;20025;-76
2022/04/16 05:47:31;;;;;;;34.33;21.77;;;;;;;5.85;91.27;102988.72;5042640;28;20017;-76
2022/04/16 05:49:56;;;;;;;36.63;22.23;;;;;;;5.88;91.56;102994.00;5040912;28;20074;-76
2022/04/16 05:52:22;;;;;;;35.85;23.88;;;;;;;5.93;91.17;102996.63;5041100;28;20017;-76
2022/04/16 05:54:48;;;;;;;37.25;23.40;;;;;;;5.98;91.19;103002.75;5045219;28;20099;-76
2022/04/16 05:57:13;;;;;;;34.47;22.27;;;;;;;6.02;91.22;103003.56;5033862;28;20481;-76
2022/04/16 05:59:39;;;;;;;37.55;24.77;;;;;;;6.07;91.43;102999.03;5030814;28;20033;-76
2022/04/16 06:02:04;;;;;;;37.97;24.38;;;;;;;6.10;91.69;103012.31;5032338;28;20034;-76
2022/04/16 06:04:30;;;;;;;34.42;22.55;;;;;;;6.15;91.47;103015.78;5032421;28;20070;-76
2022/04/16 06:06:55;;;;;;;38.13;24.58;;;;;;;6.21;91.15;103020.09;5035106;28;20463;-77
2022/04/16 06:09:20;;;;;;;39.25;24.48;;;;;;;6.25;91.31;103024.47;5048162;28;20024;-77
2022/04/16 06:11:48;;;;;;;37.80;24.00;;;;;;;6.29;91.22;103029.72;5045468;28;20088;-78
2022/04/16 06:14:14;;;;;;;36.78;24.75;;;;;;;6.37;90.99;103026.91;5040134;28;20029;-78
2022/04/16 06:16:39;;;;;;;39.10;25.30;;;;;;;6.41;90.78;103030.38;5054053;28;20025;-77
2022/04/16 06:19:04;;;;;;;35.53;23.73;;;;;;;6.48;90.67;103032.88;5030175;28;20063;-77
2022/04/16 06:21:29;;;;;;;38.55;23.67;;;;;;;6.54;91.28;103039.03;5030681;28;20369;-76
2022/04/16 06:23:55;;;;;;;37.75;24.30;;;;;;;6.58;91.06;103043.41;5045994;28;20040;-77
2022/04/16 06:26:21;;;;;;;40.17;26.70;;;;;;;6.64;90.57;103040.59;5033287;28;20461;-76
2022/04/16 06:28:46;;;;;;;40.38;25.65;;;;;;;6.70;90.52;103043.13;5038442;28;20039;-79
2022/04/16 06:31:12;;;;;;;36.50;24.48;;;;;;;6.75;91.00;103049.25;5038459;28;20389;-77
2022/04/16 06:33:37;;;;;;;40.10;25.65;;;;;;;6.83;91.03;103041.06;5038321;28;20037;-76
2022/04/16 06:36:02;;;;;;;40.42;26.52;;;;;;;6.88;90.69;103032.94;5041312;28;20036;-77
2022/04/16 06:38:29;;;;;;;38.28;25.80;;;;;;;6.94;90.75;103030.13;5042934;28;20497;-75
2022/04/16 06:40:55;;;;;;;41.78;26.38;;;;;;;7.01;90.88;103042.44;5045488;28;20396;-75
2022/04/16 06:43:20;;;;;;;39.38;27.25;;;;;;;7.07;90.46;103036.97;5031128;28;20044;-75
2022/04/16 06:45:45;;;;;;;38.13;26.33;;;;;;;7.13;90.42;103038.59;5031288;28;20435;-76
2022/04/16 06:48:10;;;;;;;38.00;25.20;;;;;;;7.22;90.88;103042.84;5065632;28;20028;-76
2022/04/16 06:50:35;;;;;;;40.17;26.67;;;;;;;7.28;90.39;103043.59;5054000;28;20029;-76
2022/04/16 06:53:01;;;;;;;38.60;25.10;;;;;;;7.37;90.17;103037.13;5035930;28;20078;-76
2022/04/16 06:55:26;;;;;;;41.60;27.38;;;;;;;7.44;89.75;103037.88;5032057;28;20043;-76
2022/04/16 06:57:51;;;;;;;43.03;27.85;;;;;;;7.51;89.71;103037.69;5030347;28;20029;-76
2022/04/16 07:00:17;;;;;;;36.97;25.50;;;;;;;7.60;89.92;103044.59;5030707;28;20193;-76
2022/04/16 07:02:42;;;;;;;38.65;26.63;;;;;;;7.68;89.28;103041.72;5033575;28;20024;-76
2022/04/16 07:05:08;;;;;;;41.08;26.15;;;;;;;7.76;89.10;103044.19;5052105;28;20111;-76
2022/04/16 07:07:33;;;;;;;40.25;26.98;;;;;;;7.84;89.08;103036.84;5050805;28;20036;-76
2022/04/16 07:09:59;;;;;;;44.72;25.90;;;;;;;7.91;88.18;103046.47;5050510;28;20048;-76
2022/04/16 07:12:24;;;;;;;42.08;26.17;;;;;;;7.96;88.17;103043.66;5051895;28;20048;-76
2022/04/16 07:14:50;;;;;;;37.72;25.65;;;;;;;8.02;87.89;103046.16;5051978;28;20025;-76
2022/04/16 07:17:15;;;;;;;38.85;24.95;;;;;;;8.09;87.32;103041.53;5060139;28;20047;-76
2022/04/16 07:19:41;;;;;;;38.58;25.88;;;;;;;8.15;87.38;103042.22;5070320;28;20028;-76
2022/04/16 07:22:06;;;;;;;36.17;23.85;;;;;;;8.24;88.36;103041.09;5070393;28;20046;-76
2022/04/16 07:24:31;;;;;;;43.00;25.83;;;;;;;8.30;87.77;103043.63;5070341;28;20021;-76
2022/04/16 07:26:57;;;;;;;37.85;23.77;;;;;;;8.35;86.16;103047.03;5070449;28;20020;-76
2022/04/16 07:29:24;;;;;;;37.78;22.70;;;;;;;8.41;86.75;103040.63;5037521;28;20354;-75
2022/04/16 07:31:50;;;;;;;38.83;23.10;;;;;;;8.49;87.05;103045.78;5030240;28;20060;-76
2022/04/16 07:34:15;;;;;;;37.53;24.10;;;;;;;8.55;85.64;103049.16;5038479;28;20421;-78
2022/04/16 07:36:42;;;;;;;37.20;23.55;;;;;;;8.63;85.65;103042.72;5050433;28;20491;-76
2022/04/16 07:39:07;;;;;;;35.97;23.15;;;;;;;8.69;85.09;103050.56;5039014;28;20040;-77
2022/04/16 07:41:33;;;;;;;36.65;22.88;;;;;;;8.73;85.10;103052.22;5030219;28;20029;-77
2022/04/16 07:44:03;;;;;;;34.85;22.02;;;;;;;8.81;84.07;103057.34;5030737;28;20473;-76
2022/04/16 07:46:28;;;;;;;35.72;22.35;;;;;;;8.86;83.72;103056.28;5037797;28;20526;-77
2022/04/16 07:48:54;;;;;;;37.50;24.45;;;;;;;8.93;83.24;103046.22;5071285;28;20025;-77
2022/04/16 07:51:19;;;;;;;33.83;21.92;;;;;;;9.01;84.28;103054.06;5060246;28;20067;-77
2022/04/16 07:53:44;;;;;;;35.05;22.25;;;;;;;9.05;83.83;103051.22;5050274;28;20064;-76
2022/04/16 07:56:09;;;;;;;34.85;21.75;;;;;;;9.12;84.09;103048.34;5051361;28;20377;-76
2022/04/16 07:58:35;;;;;;;38.38;23.85;;;;;;;9.17;84.23;103055.31;5039494;28;20106;-76
2022/04/16 08:01:00;;;;;;;35.33;23.60;;;;;;;9.26;83.80;103059.53;5039495;28;20029;-78
2022/04/16 08:03:25;;;;;;;35.47;23.38;;;;;;;9.30;82.24;103055.81;5043127;28;20029;-77
2022/04/16 08:05:50;;;;;;;38.50;22.90;;;;;;;9.35;82.34;103053.84;5028688;28;20152;-77
2022/04/16 08:08:16;;;;;;;36.13;22.85;;;;;;;9.41;82.16;103048.31;5029061;28;20030;-77
2022/04/16 08:10:41;;;;;;;38.60;23.65;;;;;;;9.51;81.81;103054.22;5029108;28;20022;-77
2022/04/16 08:13:07;;;;;;;32.85;21.60;;;;;;;9.56;81.75;103052.28;5030224;28;20500;-77
2022/04/16 08:15:33;;;;;;;34.33;21.05;;;;;;;9.61;80.24;103047.59;5011674;28;20041;-77
2022/04/16 08:17:58;;;;;;;34.85;21.45;;;;;;;9.68;81.65;103048.28;5060088;28;20391;-77
2022/04/16 08:20:24;;;;;;;35.92;22.27;;;;;;;9.78;81.80;103055.09;5069063;28;20158;-77
2022/04/16 08:22:50;;;;;;;33.58;21.02;;;;;;;9.82;80.42;103050.47;5056187;28;20028;-77
2022/04/16 08:27:51;;;;;;;35.15;23.27;;;;;;;9.99;78.96;103068.72;5051161;28;20108;-77
2022/04/16 08:30:17;;;;;;;38.53;20.92;;;;;;;10.05;77.60;103065.78;5050609;28;20025;-77
2022/04/16 08:32:44;;;;;;;31.15;20.00;;;;;;;10.11;78.37;103065.56;5050620;28;20747;-77
2022/04/16 08:35:15;;;;;;;34.75;19.60;;;;;;;10.18;78.44;103074.31;5049596;28;20021;-77
2022/04/16 08:37:40;;;;;;;33.10;19.40;;;;;;;10.24;77.73;103063.31;5049336;28;20116;-77
2022/04/16 08:40:07;;;;;;;31.38;19.90;;;;;;;10.31;77.50;103066.69;5049292;28;20021;-77
2022/04/16 08:42:34;;;;;;;29.10;16.73;;;;;;;10.35;75.73;103068.31;5043290;28;20070;-77
2022/04/16 08:45:01;;;;;;;32.92;17.60;;;;;;;10.43;78.09;103071.63;5050596;28;20025;-77
2022/04/16 08:47:26;;;;;;;29.35;18.63;;;;;;;10.48;77.71;103069.66;5060476;28;20035;-77
2022/04/16 08:49:51;;;;;;;32.22;18.08;;;;;;;10.55;75.47;103074.78;5070673;28;20108;-77
2022/04/16 08:52:18;;;;;;;29.92;18.05;;;;;;;10.59;75.10;103081.81;5070494;28;20024;-77
2022/04/16 08:54:43;;;;;;;28.35;16.83;;;;;;;10.64;75.20;103078.03;5071028;28;20048;-77
2022/04/16 08:57:08;;;;;;;32.25;18.60;;;;;;;10.70;74.81;103073.34;5074466;28;20060;-77
2022/04/16 08:59:34;;;;;;;29.08;16.58;;;;;;;10.73;75.01;103074.09;5074841;28;20422;-77
2022/04/16 09:02:00;;;;;;;29.48;16.85;;;;;;;10.78;72.82;103068.56;5074410;28;20025;-77
2022/04/16 09:04:31;;;;;;;29.50;17.23;;;;;;;10.86;74.28;103065.56;5055661;28;20013;-77
2022/04/16 09:07:03;;;;;;;27.95;15.75;;;;;;;10.94;74.72;103060.75;5054237;28;20116;-77
2022/04/16 09:09:29;;;;;;;30.08;15.10;;;;;;;10.99;72.90;103056.06;5052793;28;20535;-77
2022/04/16 09:11:55;;;;;;;30.70;16.52;;;;;;;11.06;73.69;103060.25;5052797;28;20076;-77
2022/04/16 09:14:32;;;;;;;29.88;16.67;;;;;;;11.11;73.38;103069.03;5052662;28;20059;-77
2022/04/16 09:16:58;;;;;;;27.42;15.10;;;;;;;11.18;72.70;103059.75;5061650;28;20025;-77
2022/04/16 09:19:29;;;;;;;29.00;17.40;;;;;;;11.26;74.45;103066.66;5074034;28;20024;-77
2022/04/16 09:21:54;;;;;;;29.52;16.20;;;;;;;11.33;72.86;103058.28;5073947;28;20042;-77
2022/04/16 09:24:20;;;;;;;31.10;17.90;;;;;;;11.43;75.05;103057.88;5074096;28;20399;-77
2022/04/16 09:26:48;;;;;;;27.77;15.25;;;;;;;11.44;71.40;103048.88;5074086;28;20025;-77
2022/04/16 09:29:16;;;;;;;28.88;14.85;;;;;;;11.42;71.06;103058.81;5074048;28;20587;-77
2022/04/16 09:31:45;;;;;;;26.80;15.30;;;;;;;11.35;70.95;103060.91;5073905;28;20051;-77
2022/04/16 09:34:18;;;;;;;24.90;13.05;;;;;;;11.30;70.18;103054.81;5072494;28;20028;-77
2022/04/16 09:36:44;;;;;;;25.48;13.57;;;;;;;11.31;68.31;103053.88;5072433;28;20032;-77
2022/04/16 09:39:13;;;;;;;24.65;13.00;;;;;;;11.32;67.58;103051.13;5072583;28;20046;-77
2022/04/16 09:41:40;;;;;;;25.25;12.70;;;;;;;11.33;67.00;103054.69;5066538;28;20029;-77
2022/04/16 09:44:27;;;;;;;24.90;12.70;;;;;;;11.35;68.73;103056.38;5049760;28;20028;-77
2022/04/16 09:46:55;;;;;;;24.63;12.55;;;;;;;11.35;66.44;103050.13;5060237;28;20031;-77
2022/04/16 09:49:21;;;;;;;23.05;11.38;;;;;;;11.35;64.64;103048.31;5073327;28;20104;-77
2022/04/16 09:51:48;;;;;;;24.42;12.68;;;;;;;11.40;65.65;103048.09;5070757;28;20498;-77
2022/04/16 09:54:14;;;;;;;23.60;11.80;;;;;;;11.51;68.19;103045.84;5053273;28;20071;-77
2022/04/16 09:56:41;;;;;;;23.25;10.57;;;;;;;11.66;65.52;103048.84;5052211;28;20096;-77
2022/04/16 09:59:08;;;;;;;24.02;8.93;;;;;;;11.78;63.06;103050.13;5053556;28;20477;-77
2022/04/16 10:01:35;;;;;;;20.40;8.38;;;;;;;11.92;63.71;103042.31;5051893;28;20502;-77
2022/04/16 10:04:01;;;;;;;22.98;10.43;;;;;;;12.05;65.46;103031.94;5052007;28;20020;-77
2022/04/16 10:06:30;;;;;;;19.90;8.43;;;;;;;12.11;62.09;103028.94;5052392;28;20031;-77
2022/04/16 10:08:57;;;;;;;22.92;9.65;;;;;;;12.20;61.78;103039.31;5053313;28;20025;-77
2022/04/16 10:12:59;;;;;;;17.55;6.70;;;;;;;12.22;62.75;103037.41;5053214;28;20021;-77
2022/04/16 10:14:54;;;;;;;21.17;8.55;;;;;;;12.25;62.57;103031.00;5052897;28;20057;-77
2022/04/16 10:17:46;;;;;;;20.30;7.85;;;;;;;12.36;62.42;103033.22;5063305;28;20111;-77
2022/04/16 10:20:16;;;;;;;19.73;7.57;;;;;;;12.45;60.97;103031.94;5072879;28;20078;-77
2022/04/16 10:22:51;;;;;;;;;;;;;;;12.46;62.00;103029.16;5073178;28;20486;-77
2022/04/16 10:25:27;;;;;;;22.45;7.82;;;;;;;12.45;61.11;103034.63;5073005;28;20277;-77
2022/04/16 10:28:00;;;;;;;22.25;8.88;;;;;;;12.55;62.38;103041.34;5071631;28;20020;-77
2022/04/16 10:30:35;;;;;;;21.23;9.35;;;;;;;12.50;59.59;103032.56;5067539;28;20024;-77
2022/04/16 10:33:14;;;;;;;20.45;8.77;;;;;;;12.47;60.97;103030.88;5052889;28;20477;-77
2022/04/16 10:35:54;;;;;;;19.50;7.93;;;;;;;12.46;59.07;103037.25;5052822;28;20029;-77
2022/04/16 10:38:32;;;;;;;17.13;5.32;;;;;;;12.54;59.55;103034.19;5052826;28;20025;-77
2022/04/16 10:40:58;;;;;;;17.13;6.13;;;;;;;12.66;59.03;103044.38;5051582;28;20025;-77
2022/04/16 10:43:32;;;;;;;17.42;6.75;;;;;;;12.67;57.26;103037.19;5052629;28;20040;-77
2022/04/16 10:46:06;;;;;;;18.33;6.50;;;;;;;12.65;57.45;103039.06;5051238;28;20440;-77
2022/04/16 10:48:33;;;;;;;16.80;6.05;;;;;;;12.63;55.66;103035.56;5032464;28;20079;-77
2022/04/16 10:51:00;;;;;;;20.70;7.03;;;;;;;12.65;56.62;103041.75;5031306;28;20523;-77
2022/04/16 10:53:32;;;;;;;17.15;6.32;;;;;;;12.63;57.77;103036.44;5032397;28;20083;-77
2022/04/16 10:56:06;;;;;;;14.65;4.80;;;;;;;12.58;59.35;103033.09;5032994;28;20025;-77
2022/04/16 10:58:31;;;;;;;16.92;5.38;;;;;;;12.64;56.29;103031.94;5032418;28;20018;-77
2022/04/16 11:01:09;;;;;;;15.82;5.57;;;;;;;12.74;58.63;103035.97;5031084;28;20500;-77
2022/04/16 11:03:43;;;;;;;17.58;6.55;;;;;;;12.74;56.05;103023.31;5042547;28;20381;-77
2022/04/16 11:06:08;;;;;;;19.63;6.30;;;;;;;12.81;56.54;103029.31;5052309;28;20039;-77
2022/04/16 11:08:35;;;;;;;16.95;6.47;;;;;;;12.83;55.09;103030.09;5050537;28;20115;-77
2022/04/16 11:11:03;;;;;;;16.08;6.35;;;;;;;12.87;54.99;103029.03;5052041;28;20610;-77
2022/04/16 11:13:33;;;;;;;17.42;6.15;;;;;;;13.03;58.71;103029.16;5051793;28;20103;-77
2022/04/16 11:15:59;;;;;;;18.60;7.13;;;;;;;13.06;57.24;103023.59;5051929;28;20044;-77
2022/04/16 11:18:26;;;;;;;16.77;6.50;;;;;;;13.12;58.43;103025.13;5070349;28;20046;-77
2022/04/16 11:20:56;;;;;;;17.80;6.57;;;;;;;13.10;54.25;103024.31;5070511;28;20031;-77
2022/04/16 11:23:25;;;;;;;19.00;6.82;;;;;;;13.14;56.44;103019.66;5071660;28;20044;-77
2022/04/16 11:34:23;;;;;;;18.38;7.53;;;;;;;13.25;55.71;103025.38;5049263;28;20040;-77
2022/04/16 11:36:50;;;;;;;19.65;7.32;;;;;;;13.26;53.29;103013.63;5049022;28;20033;-77